Terminal Aerodrome Forecast
Issued by NWS

Home | Current Version | Previous Version | Text Only | Print | Product List | Glossary On
Versions: 1 2 3 4 5 6 7 8 9 10 11 12 13 14 15 16 17 18 19
000
FTUS42 KTBW 102300
TAFPIE
TAF
KPIE 102337Z 1100/1124 VRB04KT P6SM VCSH SCT035 BKN250
     FM110300 VRB02KT P6SM BKN250
     FM111600 VRB04KT P6SM VCTS SCT035CB
     FM112200 31005KT P6SM VCTS SCT035CB BKN250=

USA.gov is the U.S. government's official web portal to all federal, state and local government web resources and services.